sensor_id;sensor_type;location;lat;lon;timestamp;P1;durP1;ratioP1;P2;durP2;ratioP2
39022;SDS011;25908;51.984;5.928;2023-01-29T00:02:07;23.92;;;15.32;;
39022;SDS011;25908;51.984;5.928;2023-01-29T00:04:33;23.45;;;15.27;;
39022;SDS011;25908;51.984;5.928;2023-01-29T00:06:58;22.80;;;14.80;;
39022;SDS011;25908;51.984;5.928;2023-01-29T00:09:24;24.05;;;14.80;;
39022;SDS011;25908;51.984;5.928;2023-01-29T00:11:49;27.13;;;16.00;;
39022;SDS011;25908;51.984;5.928;2023-01-29T00:14:15;24.75;;;14.73;;
39022;SDS011;25908;51.984;5.928;2023-01-29T00:16:40;24.95;;;16.38;;
39022;SDS011;25908;51.984;5.928;2023-01-29T00:19:06;22.73;;;14.65;;
39022;SDS011;25908;51.984;5.928;2023-01-29T00:21:31;24.40;;;15.50;;
39022;SDS011;25908;51.984;5.928;2023-01-29T00:23:57;22.95;;;14.65;;
39022;SDS011;25908;51.984;5.928;2023-01-29T00:26:24;24.85;;;15.30;;
39022;SDS011;25908;51.984;5.928;2023-01-29T00:28:49;25.15;;;15.82;;
39022;SDS011;25908;51.984;5.928;2023-01-29T00:31:19;25.88;;;16.55;;
39022;SDS011;25908;51.984;5.928;2023-01-29T00:33:48;25.15;;;16.30;;
39022;SDS011;25908;51.984;5.928;2023-01-29T00:36:15;23.15;;;14.45;;
39022;SDS011;25908;51.984;5.928;2023-01-29T00:38:42;24.83;;;15.45;;
39022;SDS011;25908;51.984;5.928;2023-01-29T00:41:11;25.67;;;16.00;;
39022;SDS011;25908;51.984;5.928;2023-01-29T00:43:58;24.85;;;15.57;;
39022;SDS011;25908;51.984;5.928;2023-01-29T00:46:43;27.98;;;15.38;;
39022;SDS011;25908;51.984;5.928;2023-01-29T00:49:10;24.80;;;16.05;;
39022;SDS011;25908;51.984;5.928;2023-01-29T00:51:36;25.08;;;14.73;;
39022;SDS011;25908;51.984;5.928;2023-01-29T00:54:02;25.15;;;15.70;;
39022;SDS011;25908;51.984;5.928;2023-01-29T00:56:31;26.20;;;15.60;;
39022;SDS011;25908;51.984;5.928;2023-01-29T00:58:58;26.20;;;15.85;;
39022;SDS011;25908;51.984;5.928;2023-01-29T01:01:24;25.67;;;16.15;;
39022;SDS011;25908;51.984;5.928;2023-01-29T01:04:09;25.02;;;15.60;;
39022;SDS011;25908;51.984;5.928;2023-01-29T01:06:36;25.08;;;16.67;;
39022;SDS011;25908;51.984;5.928;2023-01-29T01:09:03;24.10;;;15.68;;
39022;SDS011;25908;51.984;5.928;2023-01-29T01:11:55;24.48;;;15.05;;
39022;SDS011;25908;51.984;5.928;2023-01-29T01:14:21;27.10;;;16.48;;
39022;SDS011;25908;51.984;5.928;2023-01-29T01:16:46;24.98;;;15.82;;
39022;SDS011;25908;51.984;5.928;2023-01-29T01:19:13;25.70;;;15.95;;
39022;SDS011;25908;51.984;5.928;2023-01-29T01:21:39;27.70;;;16.83;;
39022;SDS011;25908;51.984;5.928;2023-01-29T01:24:09;26.30;;;16.67;;
39022;SDS011;25908;51.984;5.928;2023-01-29T01:26:35;25.77;;;16.92;;
39022;SDS011;25908;51.984;5.928;2023-01-29T01:29:00;26.42;;;15.98;;
39022;SDS011;25908;51.984;5.928;2023-01-29T01:31:26;25.55;;;15.80;;
39022;SDS011;25908;51.984;5.928;2023-01-29T01:33:51;26.23;;;16.27;;
39022;SDS011;25908;51.984;5.928;2023-01-29T01:36:19;25.85;;;16.48;;
39022;SDS011;25908;51.984;5.928;2023-01-29T01:38:45;28.17;;;16.75;;
39022;SDS011;25908;51.984;5.928;2023-01-29T01:41:11;25.38;;;16.73;;
39022;SDS011;25908;51.984;5.928;2023-01-29T01:43:55;26.95;;;16.30;;
39022;SDS011;25908;51.984;5.928;2023-01-29T01:46:22;24.85;;;15.68;;
39022;SDS011;25908;51.984;5.928;2023-01-29T01:49:00;27.48;;;17.75;;
39022;SDS011;25908;51.984;5.928;2023-01-29T01:51:42;26.15;;;16.92;;
39022;SDS011;25908;51.984;5.928;2023-01-29T01:54:21;32.85;;;18.48;;
39022;SDS011;25908;51.984;5.928;2023-01-29T01:56:53;26.85;;;16.63;;
39022;SDS011;25908;51.984;5.928;2023-01-29T01:59:33;27.88;;;17.60;;
39022;SDS011;25908;51.984;5.928;2023-01-29T02:02:00;29.13;;;16.33;;
39022;SDS011;25908;51.984;5.928;2023-01-29T02:04:45;27.63;;;16.75;;
39022;SDS011;25908;51.984;5.928;2023-01-29T02:07:33;30.13;;;18.20;;
39022;SDS011;25908;51.984;5.928;2023-01-29T02:10:23;30.50;;;17.45;;
39022;SDS011;25908;51.984;5.928;2023-01-29T02:12:49;30.98;;;18.10;;
39022;SDS011;25908;51.984;5.928;2023-01-29T02:15:15;28.42;;;16.88;;
39022;SDS011;25908;51.984;5.928;2023-01-29T02:17:41;29.98;;;18.60;;
39022;SDS011;25908;51.984;5.928;2023-01-29T02:20:25;28.35;;;17.23;;
39022;SDS011;25908;51.984;5.928;2023-01-29T02:30:32;31.58;;;18.50;;
39022;SDS011;25908;51.984;5.928;2023-01-29T02:33:07;30.80;;;18.83;;
39022;SDS011;25908;51.984;5.928;2023-01-29T02:35:42;28.02;;;17.83;;
39022;SDS011;25908;51.984;5.928;2023-01-29T02:41:09;31.13;;;18.70;;
39022;SDS011;25908;51.984;5.928;2023-01-29T02:51:34;29.40;;;16.88;;
39022;SDS011;25908;51.984;5.928;2023-01-29T02:56:47;30.40;;;18.40;;
39022;SDS011;25908;51.984;5.928;2023-01-29T03:02:48;29.80;;;18.63;;
39022;SDS011;25908;51.984;5.928;2023-01-29T03:05:20;32.15;;;18.88;;
39022;SDS011;25908;51.984;5.928;2023-01-29T03:07:55;30.15;;;18.38;;
39022;SDS011;25908;51.984;5.928;2023-01-29T03:10:36;32.13;;;19.52;;
39022;SDS011;25908;51.984;5.928;2023-01-29T03:13:14;29.02;;;18.05;;
39022;SDS011;25908;51.984;5.928;2023-01-29T03:16:02;27.35;;;16.80;;
39022;SDS011;25908;51.984;5.928;2023-01-29T03:18:35;30.30;;;18.63;;
39022;SDS011;25908;51.984;5.928;2023-01-29T03:21:11;30.17;;;18.08;;
39022;SDS011;25908;51.984;5.928;2023-01-29T03:24:00;29.83;;;17.92;;
39022;SDS011;25908;51.984;5.928;2023-01-29T03:26:46;31.15;;;18.42;;
39022;SDS011;25908;51.984;5.928;2023-01-29T03:29:30;28.70;;;17.67;;
39022;SDS011;25908;51.984;5.928;2023-01-29T03:32:16;30.42;;;17.73;;
39022;SDS011;25908;51.984;5.928;2023-01-29T03:34:48;30.20;;;18.67;;
39022;SDS011;25908;51.984;5.928;2023-01-29T03:37:20;33.22;;;18.05;;
39022;SDS011;25908;51.984;5.928;2023-01-29T03:39:46;29.38;;;18.17;;
39022;SDS011;25908;51.984;5.928;2023-01-29T03:42:15;30.33;;;18.40;;
39022;SDS011;25908;51.984;5.928;2023-01-29T03:44:50;34.75;;;19.90;;
39022;SDS011;25908;51.984;5.928;2023-01-29T03:47:38;28.95;;;17.67;;
39022;SDS011;25908;51.984;5.928;2023-01-29T03:50:30;30.00;;;18.83;;
39022;SDS011;25908;51.984;5.928;2023-01-29T03:53:20;35.00;;;19.50;;
39022;SDS011;25908;51.984;5.928;2023-01-29T03:55:57;29.30;;;18.77;;
39022;SDS011;25908;51.984;5.928;2023-01-29T04:04:00;30.08;;;19.20;;
39022;SDS011;25908;51.984;5.928;2023-01-29T04:06:39;31.27;;;19.50;;
39022;SDS011;25908;51.984;5.928;2023-01-29T04:09:10;30.35;;;18.40;;
39022;SDS011;25908;51.984;5.928;2023-01-29T04:11:51;30.38;;;18.65;;
39022;SDS011;25908;51.984;5.928;2023-01-29T04:14:24;29.55;;;18.90;;
39022;SDS011;25908;51.984;5.928;2023-01-29T04:16:51;31.30;;;19.92;;
39022;SDS011;25908;51.984;5.928;2023-01-29T04:19:19;30.73;;;19.53;;
39022;SDS011;25908;51.984;5.928;2023-01-29T04:21:45;30.05;;;18.63;;
39022;SDS011;25908;51.984;5.928;2023-01-29T04:24:14;31.13;;;18.98;;
39022;SDS011;25908;51.984;5.928;2023-01-29T04:32:47;34.67;;;21.30;;
39022;SDS011;25908;51.984;5.928;2023-01-29T04:43:20;30.48;;;18.60;;
39022;SDS011;25908;51.984;5.928;2023-01-29T04:48:51;31.73;;;19.55;;
39022;SDS011;25908;51.984;5.928;2023-01-29T04:51:50;34.25;;;18.77;;
39022;SDS011;25908;51.984;5.928;2023-01-29T04:57:02;32.50;;;19.47;;
39022;SDS011;25908;51.984;5.928;2023-01-29T04:59:41;31.27;;;19.30;;
39022;SDS011;25908;51.984;5.928;2023-01-29T05:02:15;32.83;;;18.75;;
39022;SDS011;25908;51.984;5.928;2023-01-29T05:04:43;32.45;;;19.83;;
39022;SDS011;25908;51.984;5.928;2023-01-29T05:07:11;32.50;;;19.55;;
39022;SDS011;25908;51.984;5.928;2023-01-29T05:09:38;32.20;;;19.67;;
39022;SDS011;25908;51.984;5.928;2023-01-29T05:12:08;43.33;;;22.05;;
39022;SDS011;25908;51.984;5.928;2023-01-29T05:14:36;34.75;;;20.50;;
39022;SDS011;25908;51.984;5.928;2023-01-29T05:17:04;31.23;;;19.98;;
39022;SDS011;25908;51.984;5.928;2023-01-29T05:19:38;35.78;;;20.60;;
39022;SDS011;25908;51.984;5.928;2023-01-29T05:22:04;34.72;;;20.20;;
39022;SDS011;25908;51.984;5.928;2023-01-29T05:24:30;34.15;;;20.42;;
39022;SDS011;25908;51.984;5.928;2023-01-29T05:26:56;33.22;;;19.98;;
39022;SDS011;25908;51.984;5.928;2023-01-29T05:29:41;36.20;;;20.55;;
39022;SDS011;25908;51.984;5.928;2023-01-29T05:32:09;34.03;;;20.50;;
39022;SDS011;25908;51.984;5.928;2023-01-29T05:34:34;31.95;;;20.77;;
39022;SDS011;25908;51.984;5.928;2023-01-29T05:37:01;32.80;;;19.40;;
39022;SDS011;25908;51.984;5.928;2023-01-29T05:39:27;34.10;;;20.20;;
39022;SDS011;25908;51.984;5.928;2023-01-29T05:41:52;33.53;;;19.92;;
39022;SDS011;25908;51.984;5.928;2023-01-29T05:44:18;35.88;;;20.83;;
39022;SDS011;25908;51.984;5.928;2023-01-29T05:46:44;34.10;;;20.83;;
39022;SDS011;25908;51.984;5.928;2023-01-29T05:49:10;31.40;;;19.98;;
39022;SDS011;25908;51.984;5.928;2023-01-29T05:51:36;34.22;;;21.25;;
39022;SDS011;25908;51.984;5.928;2023-01-29T05:54:01;33.40;;;20.75;;
39022;SDS011;25908;51.984;5.928;2023-01-29T05:56:27;33.40;;;20.27;;
39022;SDS011;25908;51.984;5.928;2023-01-29T05:58:53;35.75;;;22.13;;
39022;SDS011;25908;51.984;5.928;2023-01-29T06:01:20;32.63;;;21.20;;
39022;SDS011;25908;51.984;5.928;2023-01-29T06:03:48;34.00;;;20.83;;
39022;SDS011;25908;51.984;5.928;2023-01-29T06:06:13;33.78;;;20.38;;
39022;SDS011;25908;51.984;5.928;2023-01-29T06:08:39;33.83;;;20.67;;
39022;SDS011;25908;51.984;5.928;2023-01-29T06:11:06;34.88;;;21.92;;
39022;SDS011;25908;51.984;5.928;2023-01-29T06:13:32;34.28;;;21.85;;
39022;SDS011;25908;51.984;5.928;2023-01-29T06:15:58;35.10;;;22.50;;
39022;SDS011;25908;51.984;5.928;2023-01-29T06:18:24;34.38;;;21.13;;
39022;SDS011;25908;51.984;5.928;2023-01-29T06:20:49;34.20;;;21.35;;
39022;SDS011;25908;51.984;5.928;2023-01-29T06:23:15;36.45;;;22.88;;
39022;SDS011;25908;51.984;5.928;2023-01-29T06:25:41;35.33;;;21.77;;
39022;SDS011;25908;51.984;5.928;2023-01-29T06:28:06;36.60;;;22.60;;
39022;SDS011;25908;51.984;5.928;2023-01-29T06:30:32;35.70;;;22.02;;
39022;SDS011;25908;51.984;5.928;2023-01-29T06:32:57;32.45;;;20.77;;
39022;SDS011;25908;51.984;5.928;2023-01-29T06:35:25;36.90;;;21.95;;
39022;SDS011;25908;51.984;5.928;2023-01-29T06:37:51;37.78;;;24.00;;
39022;SDS011;25908;51.984;5.928;2023-01-29T06:40:17;35.17;;;21.48;;
39022;SDS011;25908;51.984;5.928;2023-01-29T06:42:43;36.30;;;22.80;;
39022;SDS011;25908;51.984;5.928;2023-01-29T06:45:08;37.22;;;23.05;;
39022;SDS011;25908;51.984;5.928;2023-01-29T06:47:34;38.05;;;22.73;;
39022;SDS011;25908;51.984;5.928;2023-01-29T06:50:01;34.65;;;21.98;;
39022;SDS011;25908;51.984;5.928;2023-01-29T06:52:27;35.20;;;22.23;;
39022;SDS011;25908;51.984;5.928;2023-01-29T06:54:53;35.75;;;21.20;;
39022;SDS011;25908;51.984;5.928;2023-01-29T06:57:20;35.25;;;21.50;;
39022;SDS011;25908;51.984;5.928;2023-01-29T06:59:46;37.58;;;20.80;;
39022;SDS011;25908;51.984;5.928;2023-01-29T07:02:11;36.33;;;22.08;;
39022;SDS011;25908;51.984;5.928;2023-01-29T07:04:37;39.78;;;22.05;;
39022;SDS011;25908;51.984;5.928;2023-01-29T07:07:05;35.35;;;21.98;;
39022;SDS011;25908;51.984;5.928;2023-01-29T07:09:37;33.67;;;21.63;;
39022;SDS011;25908;51.984;5.928;2023-01-29T07:12:06;32.90;;;21.20;;
39022;SDS011;25908;51.984;5.928;2023-01-29T07:14:32;33.38;;;19.42;;
39022;SDS011;25908;51.984;5.928;2023-01-29T07:16:58;33.95;;;20.85;;
39022;SDS011;25908;51.984;5.928;2023-01-29T07:19:23;35.53;;;22.52;;
39022;SDS011;25908;51.984;5.928;2023-01-29T07:21:49;33.65;;;21.05;;
39022;SDS011;25908;51.984;5.928;2023-01-29T07:24:14;36.60;;;21.35;;
39022;SDS011;25908;51.984;5.928;2023-01-29T07:26:40;36.60;;;21.50;;
39022;SDS011;25908;51.984;5.928;2023-01-29T07:29:06;36.83;;;22.17;;
39022;SDS011;25908;51.984;5.928;2023-01-29T07:31:32;38.30;;;21.90;;
39022;SDS011;25908;51.984;5.928;2023-01-29T07:33:58;33.75;;;20.75;;
39022;SDS011;25908;51.984;5.928;2023-01-29T07:36:23;36.35;;;21.30;;
39022;SDS011;25908;51.984;5.928;2023-01-29T07:38:49;34.63;;;21.02;;
39022;SDS011;25908;51.984;5.928;2023-01-29T07:41:15;34.92;;;22.35;;
39022;SDS011;25908;51.984;5.928;2023-01-29T07:43:41;33.22;;;21.42;;
39022;SDS011;25908;51.984;5.928;2023-01-29T07:46:06;36.00;;;21.55;;
39022;SDS011;25908;51.984;5.928;2023-01-29T07:48:32;33.38;;;20.25;;
39022;SDS011;25908;51.984;5.928;2023-01-29T07:50:58;34.60;;;22.23;;
39022;SDS011;25908;51.984;5.928;2023-01-29T07:53:24;37.03;;;22.33;;
39022;SDS011;25908;51.984;5.928;2023-01-29T07:55:49;37.75;;;22.08;;
39022;SDS011;25908;51.984;5.928;2023-01-29T07:58:15;34.65;;;21.23;;
39022;SDS011;25908;51.984;5.928;2023-01-29T08:00:41;36.92;;;21.83;;
39022;SDS011;25908;51.984;5.928;2023-01-29T08:03:14;33.50;;;20.40;;
39022;SDS011;25908;51.984;5.928;2023-01-29T08:05:42;36.05;;;22.35;;
39022;SDS011;25908;51.984;5.928;2023-01-29T08:08:08;35.30;;;22.77;;
39022;SDS011;25908;51.984;5.928;2023-01-29T08:10:34;38.55;;;23.63;;
39022;SDS011;25908;51.984;5.928;2023-01-29T08:13:01;36.53;;;22.92;;
39022;SDS011;25908;51.984;5.928;2023-01-29T08:15:28;37.03;;;22.30;;
39022;SDS011;25908;51.984;5.928;2023-01-29T08:17:54;35.67;;;22.00;;
39022;SDS011;25908;51.984;5.928;2023-01-29T08:20:20;36.28;;;22.40;;
39022;SDS011;25908;51.984;5.928;2023-01-29T08:22:46;34.95;;;22.33;;
39022;SDS011;25908;51.984;5.928;2023-01-29T08:25:13;35.90;;;22.45;;
39022;SDS011;25908;51.984;5.928;2023-01-29T08:27:39;37.67;;;22.27;;
39022;SDS011;25908;51.984;5.928;2023-01-29T08:30:05;35.88;;;23.95;;
39022;SDS011;25908;51.984;5.928;2023-01-29T08:32:32;35.92;;;22.38;;
39022;SDS011;25908;51.984;5.928;2023-01-29T08:34:57;33.15;;;20.90;;
39022;SDS011;25908;51.984;5.928;2023-01-29T08:37:23;32.67;;;20.85;;
39022;SDS011;25908;51.984;5.928;2023-01-29T08:39:48;34.10;;;21.90;;
39022;SDS011;25908;51.984;5.928;2023-01-29T08:42:14;35.47;;;20.85;;
39022;SDS011;25908;51.984;5.928;2023-01-29T08:44:39;33.53;;;21.85;;
39022;SDS011;25908;51.984;5.928;2023-01-29T08:47:05;34.75;;;20.75;;
39022;SDS011;25908;51.984;5.928;2023-01-29T08:49:31;33.75;;;22.42;;
39022;SDS011;25908;51.984;5.928;2023-01-29T08:51:56;32.53;;;20.42;;
39022;SDS011;25908;51.984;5.928;2023-01-29T08:54:22;32.58;;;21.33;;
39022;SDS011;25908;51.984;5.928;2023-01-29T08:56:48;35.70;;;21.13;;
39022;SDS011;25908;51.984;5.928;2023-01-29T08:59:14;30.90;;;19.83;;
39022;SDS011;25908;51.984;5.928;2023-01-29T09:01:40;34.10;;;20.30;;
39022;SDS011;25908;51.984;5.928;2023-01-29T09:04:06;33.70;;;21.33;;
39022;SDS011;25908;51.984;5.928;2023-01-29T09:06:31;32.40;;;20.52;;
39022;SDS011;25908;51.984;5.928;2023-01-29T09:08:57;29.98;;;19.98;;
39022;SDS011;25908;51.984;5.928;2023-01-29T09:11:22;31.02;;;19.67;;
39022;SDS011;25908;51.984;5.928;2023-01-29T09:13:48;31.85;;;20.08;;
39022;SDS011;25908;51.984;5.928;2023-01-29T09:16:13;29.08;;;19.50;;
39022;SDS011;25908;51.984;5.928;2023-01-29T09:18:39;29.73;;;19.27;;
39022;SDS011;25908;51.984;5.928;2023-01-29T09:21:04;31.33;;;20.45;;
39022;SDS011;25908;51.984;5.928;2023-01-29T09:23:30;32.38;;;19.63;;
39022;SDS011;25908;51.984;5.928;2023-01-29T09:25:56;31.15;;;19.98;;
39022;SDS011;25908;51.984;5.928;2023-01-29T09:28:22;29.73;;;19.42;;
39022;SDS011;25908;51.984;5.928;2023-01-29T09:30:47;29.23;;;18.67;;
39022;SDS011;25908;51.984;5.928;2023-01-29T09:33:13;29.55;;;18.38;;
39022;SDS011;25908;51.984;5.928;2023-01-29T09:35:39;31.05;;;19.33;;
39022;SDS011;25908;51.984;5.928;2023-01-29T09:38:06;29.05;;;18.52;;
39022;SDS011;25908;51.984;5.928;2023-01-29T09:43:14;29.60;;;18.95;;
39022;SDS011;25908;51.984;5.928;2023-01-29T09:48:31;28.05;;;17.65;;
39022;SDS011;25908;51.984;5.928;2023-01-29T09:50:59;29.33;;;18.50;;
39022;SDS011;25908;51.984;5.928;2023-01-29T09:53:33;27.98;;;18.55;;
39022;SDS011;25908;51.984;5.928;2023-01-29T09:56:05;31.63;;;19.55;;
39022;SDS011;25908;51.984;5.928;2023-01-29T09:58:43;27.20;;;18.35;;
39022;SDS011;25908;51.984;5.928;2023-01-29T10:01:23;30.73;;;19.17;;
39022;SDS011;25908;51.984;5.928;2023-01-29T10:20:56;30.20;;;18.90;;
39022;SDS011;25908;51.984;5.928;2023-01-29T10:23:33;28.50;;;17.92;;
39022;SDS011;25908;51.984;5.928;2023-01-29T10:26:02;28.27;;;17.55;;
39022;SDS011;25908;51.984;5.928;2023-01-29T10:28:37;26.95;;;17.35;;
39022;SDS011;25908;51.984;5.928;2023-01-29T10:31:17;25.55;;;17.17;;
39022;SDS011;25908;51.984;5.928;2023-01-29T10:34:00;26.67;;;17.42;;
39022;SDS011;25908;51.984;5.928;2023-01-29T10:36:37;25.05;;;17.58;;
39022;SDS011;25908;51.984;5.928;2023-01-29T10:39:25;26.73;;;17.67;;
39022;SDS011;25908;51.984;5.928;2023-01-29T10:42:05;26.90;;;17.38;;
39022;SDS011;25908;51.984;5.928;2023-01-29T10:50:53;27.67;;;17.08;;
39022;SDS011;25908;51.984;5.928;2023-01-29T11:01:56;27.65;;;17.77;;
39022;SDS011;25908;51.984;5.928;2023-01-29T11:04:23;26.50;;;16.85;;
39022;SDS011;25908;51.984;5.928;2023-01-29T11:06:50;24.80;;;16.48;;
39022;SDS011;25908;51.984;5.928;2023-01-29T11:12:14;29.45;;;17.08;;
39022;SDS011;25908;51.984;5.928;2023-01-29T11:14:52;25.27;;;17.27;;
39022;SDS011;25908;51.984;5.928;2023-01-29T11:17:30;25.85;;;17.13;;
39022;SDS011;25908;51.984;5.928;2023-01-29T11:19:56;25.05;;;17.17;;
39022;SDS011;25908;51.984;5.928;2023-01-29T11:22:23;25.08;;;17.05;;
39022;SDS011;25908;51.984;5.928;2023-01-29T11:25:35;25.60;;;16.38;;
39022;SDS011;25908;51.984;5.928;2023-01-29T11:27:47;24.83;;;16.20;;
39022;SDS011;25908;51.984;5.928;2023-01-29T11:30:21;29.15;;;17.20;;
39022;SDS011;25908;51.984;5.928;2023-01-29T11:35:32;24.38;;;16.48;;
39022;SDS011;25908;51.984;5.928;2023-01-29T11:38:13;26.55;;;17.40;;
39022;SDS011;25908;51.984;5.928;2023-01-29T11:40:51;25.67;;;17.55;;
39022;SDS011;25908;51.984;5.928;2023-01-29T11:43:18;25.85;;;17.13;;
39022;SDS011;25908;51.984;5.928;2023-01-29T11:45:52;25.00;;;16.67;;
39022;SDS011;25908;51.984;5.928;2023-01-29T11:48:20;26.63;;;17.90;;
39022;SDS011;25908;51.984;5.928;2023-01-29T11:50:56;25.13;;;17.17;;
39022;SDS011;25908;51.984;5.928;2023-01-29T11:53:32;27.95;;;17.67;;
39022;SDS011;25908;51.984;5.928;2023-01-29T11:56:20;24.80;;;17.13;;
39022;SDS011;25908;51.984;5.928;2023-01-29T11:58:51;24.80;;;17.33;;
39022;SDS011;25908;51.984;5.928;2023-01-29T12:01:25;26.05;;;17.42;;
39022;SDS011;25908;51.984;5.928;2023-01-29T12:03:55;22.88;;;16.73;;
39022;SDS011;25908;51.984;5.928;2023-01-29T12:06:27;26.77;;;17.95;;
39022;SDS011;25908;51.984;5.928;2023-01-29T12:08:59;24.13;;;17.77;;
39022;SDS011;25908;51.984;5.928;2023-01-29T12:11:30;28.80;;;18.02;;
39022;SDS011;25908;51.984;5.928;2023-01-29T12:14:01;27.88;;;18.27;;
39022;SDS011;25908;51.984;5.928;2023-01-29T12:19:35;26.08;;;18.40;;
39022;SDS011;25908;51.984;5.928;2023-01-29T12:22:09;26.57;;;19.33;;
39022;SDS011;25908;51.984;5.928;2023-01-29T12:24:55;27.67;;;18.40;;
39022;SDS011;25908;51.984;5.928;2023-01-29T12:27:31;31.38;;;21.73;;
39022;SDS011;25908;51.984;5.928;2023-01-29T12:35:20;29.83;;;22.58;;
39022;SDS011;25908;51.984;5.928;2023-01-29T12:40:42;28.23;;;20.35;;
39022;SDS011;25908;51.984;5.928;2023-01-29T12:43:47;28.65;;;21.73;;
39022;SDS011;25908;51.984;5.928;2023-01-29T12:46:20;30.38;;;21.40;;
39022;SDS011;25908;51.984;5.928;2023-01-29T12:48:51;28.95;;;20.33;;
39022;SDS011;25908;51.984;5.928;2023-01-29T12:51:22;29.23;;;20.08;;
39022;SDS011;25908;51.984;5.928;2023-01-29T12:54:11;29.00;;;21.45;;
39022;SDS011;25908;51.984;5.928;2023-01-29T12:56:42;31.27;;;21.95;;
39022;SDS011;25908;51.984;5.928;2023-01-29T12:59:14;33.25;;;22.23;;
39022;SDS011;25908;51.984;5.928;2023-01-29T13:01:53;30.20;;;21.27;;
39022;SDS011;25908;51.984;5.928;2023-01-29T13:07:12;30.95;;;21.00;;
39022;SDS011;25908;51.984;5.928;2023-01-29T13:09:45;32.95;;;22.13;;
39022;SDS011;25908;51.984;5.928;2023-01-29T13:12:15;35.60;;;22.67;;
39022;SDS011;25908;51.984;5.928;2023-01-29T13:14:44;34.60;;;23.75;;
39022;SDS011;25908;51.984;5.928;2023-01-29T13:20:09;33.22;;;23.30;;
39022;SDS011;25908;51.984;5.928;2023-01-29T13:22:37;33.35;;;22.48;;
39022;SDS011;25908;51.984;5.928;2023-01-29T13:25:05;33.97;;;22.83;;
39022;SDS011;25908;51.984;5.928;2023-01-29T13:27:35;29.75;;;21.42;;
39022;SDS011;25908;51.984;5.928;2023-01-29T13:30:01;32.88;;;22.20;;
39022;SDS011;25908;51.984;5.928;2023-01-29T13:32:29;32.35;;;21.90;;
39022;SDS011;25908;51.984;5.928;2023-01-29T13:34:57;32.78;;;22.67;;
39022;SDS011;25908;51.984;5.928;2023-01-29T13:37:31;33.17;;;23.70;;
39022;SDS011;25908;51.984;5.928;2023-01-29T13:39:59;39.05;;;24.80;;
39022;SDS011;25908;51.984;5.928;2023-01-29T13:42:42;36.70;;;24.85;;
39022;SDS011;25908;51.984;5.928;2023-01-29T13:45:27;35.22;;;24.63;;
39022;SDS011;25908;51.984;5.928;2023-01-29T13:50:46;37.63;;;25.40;;
39022;SDS011;25908;51.984;5.928;2023-01-29T13:53:25;36.38;;;23.75;;
39022;SDS011;25908;51.984;5.928;2023-01-29T13:58:56;35.92;;;24.40;;
39022;SDS011;25908;51.984;5.928;2023-01-29T14:06:54;38.58;;;24.83;;
39022;SDS011;25908;51.984;5.928;2023-01-29T14:12:47;36.70;;;25.40;;
39022;SDS011;25908;51.984;5.928;2023-01-29T14:17:13;39.25;;;25.50;;
39022;SDS011;25908;51.984;5.928;2023-01-29T14:19:49;36.22;;;25.50;;
39022;SDS011;25908;51.984;5.928;2023-01-29T14:22:20;34.85;;;23.63;;
39022;SDS011;25908;51.984;5.928;2023-01-29T14:27:18;35.20;;;24.30;;
39022;SDS011;25908;51.984;5.928;2023-01-29T14:29:46;36.63;;;24.17;;
39022;SDS011;25908;51.984;5.928;2023-01-29T14:34:50;35.05;;;23.85;;
39022;SDS011;25908;51.984;5.928;2023-01-29T14:37:24;36.80;;;24.35;;
39022;SDS011;25908;51.984;5.928;2023-01-29T14:39:54;36.47;;;24.75;;
39022;SDS011;25908;51.984;5.928;2023-01-29T14:42:24;34.13;;;23.67;;
39022;SDS011;25908;51.984;5.928;2023-01-29T14:47:19;36.05;;;23.88;;
39022;SDS011;25908;51.984;5.928;2023-01-29T14:49:55;38.35;;;25.75;;
39022;SDS011;25908;51.984;5.928;2023-01-29T14:54:58;39.15;;;23.55;;
39022;SDS011;25908;51.984;5.928;2023-01-29T14:57:26;40.50;;;26.23;;
39022;SDS011;25908;51.984;5.928;2023-01-29T15:00:02;40.50;;;25.92;;
39022;SDS011;25908;51.984;5.928;2023-01-29T15:02:42;37.63;;;24.20;;
39022;SDS011;25908;51.984;5.928;2023-01-29T15:05:23;36.70;;;23.48;;
39022;SDS011;25908;51.984;5.928;2023-01-29T15:08:02;37.67;;;24.95;;
39022;SDS011;25908;51.984;5.928;2023-01-29T15:13:07;33.45;;;23.45;;
39022;SDS011;25908;51.984;5.928;2023-01-29T15:15:42;34.42;;;23.30;;
39022;SDS011;25908;51.984;5.928;2023-01-29T15:18:18;34.28;;;22.83;;
39022;SDS011;25908;51.984;5.928;2023-01-29T15:20:45;39.60;;;25.17;;
39022;SDS011;25908;51.984;5.928;2023-01-29T15:26:08;37.08;;;26.67;;
39022;SDS011;25908;51.984;5.928;2023-01-29T15:28:36;37.50;;;24.88;;
39022;SDS011;25908;51.984;5.928;2023-01-29T15:31:06;37.85;;;22.63;;
39022;SDS011;25908;51.984;5.928;2023-01-29T15:33:37;37.60;;;24.27;;
39022;SDS011;25908;51.984;5.928;2023-01-29T15:36:05;39.60;;;25.23;;
39022;SDS011;25908;51.984;5.928;2023-01-29T15:38:31;39.92;;;24.55;;
39022;SDS011;25908;51.984;5.928;2023-01-29T15:40:58;39.13;;;25.70;;
39022;SDS011;25908;51.984;5.928;2023-01-29T15:43:26;40.05;;;24.92;;
39022;SDS011;25908;51.984;5.928;2023-01-29T15:46:03;41.05;;;26.15;;
39022;SDS011;25908;51.984;5.928;2023-01-29T15:48:35;35.92;;;24.13;;
39022;SDS011;25908;51.984;5.928;2023-01-29T15:51:05;35.25;;;23.65;;
39022;SDS011;25908;51.984;5.928;2023-01-29T15:53:34;38.50;;;25.10;;
39022;SDS011;25908;51.984;5.928;2023-01-29T15:56:08;38.83;;;25.05;;
39022;SDS011;25908;51.984;5.928;2023-01-29T15:58:35;41.03;;;24.98;;
39022;SDS011;25908;51.984;5.928;2023-01-29T16:01:03;40.80;;;27.00;;
39022;SDS011;25908;51.984;5.928;2023-01-29T16:03:29;38.65;;;25.27;;
39022;SDS011;25908;51.984;5.928;2023-01-29T16:05:57;37.75;;;24.23;;
39022;SDS011;25908;51.984;5.928;2023-01-29T16:08:24;38.33;;;24.30;;
39022;SDS011;25908;51.984;5.928;2023-01-29T16:10:54;40.15;;;25.10;;
39022;SDS011;25908;51.984;5.928;2023-01-29T16:13:32;37.15;;;24.50;;
39022;SDS011;25908;51.984;5.928;2023-01-29T16:16:01;38.20;;;24.15;;
39022;SDS011;25908;51.984;5.928;2023-01-29T16:18:43;36.88;;;23.48;;
39022;SDS011;25908;51.984;5.928;2023-01-29T16:24:07;37.83;;;24.67;;
39022;SDS011;25908;51.984;5.928;2023-01-29T16:26:41;38.78;;;24.92;;
39022;SDS011;25908;51.984;5.928;2023-01-29T16:29:12;37.92;;;24.05;;
39022;SDS011;25908;51.984;5.928;2023-01-29T16:31:41;40.03;;;25.60;;
39022;SDS011;25908;51.984;5.928;2023-01-29T16:34:23;41.47;;;25.42;;
39022;SDS011;25908;51.984;5.928;2023-01-29T16:36:52;38.38;;;24.05;;
39022;SDS011;25908;51.984;5.928;2023-01-29T16:39:20;38.25;;;23.92;;
39022;SDS011;25908;51.984;5.928;2023-01-29T16:42:07;37.40;;;24.02;;
39022;SDS011;25908;51.984;5.928;2023-01-29T16:47:35;39.70;;;24.90;;
39022;SDS011;25908;51.984;5.928;2023-01-29T16:52:57;36.55;;;23.90;;
39022;SDS011;25908;51.984;5.928;2023-01-29T16:55:30;33.65;;;22.48;;
39022;SDS011;25908;51.984;5.928;2023-01-29T16:58:00;38.92;;;23.88;;
39022;SDS011;25908;51.984;5.928;2023-01-29T17:00:29;39.40;;;24.60;;
39022;SDS011;25908;51.984;5.928;2023-01-29T17:02:59;41.10;;;24.02;;
39022;SDS011;25908;51.984;5.928;2023-01-29T17:05:30;37.75;;;24.08;;
39022;SDS011;25908;51.984;5.928;2023-01-29T17:07:58;37.97;;;24.80;;
39022;SDS011;25908;51.984;5.928;2023-01-29T17:10:25;39.15;;;23.98;;
39022;SDS011;25908;51.984;5.928;2023-01-29T17:12:57;38.97;;;23.38;;